Time;durP1;ratioP1;P1;durP2;ratioP2;P2;SDS_P1;SDS_P2;PMS_P1;PMS_P2;Temp;Humidity;BMP_temperature;BMP_pressure;BME280_temperature;BME280_humidity;BME280_pressure;Samples;Min_cycle;Max_cycle;Signal;HPM_P1;HPM_P2
2023/08/11 00:00:21;;;;;;;1.33;1.23;;;20.60;99.90;;;;;;4128376;28;20081;-69
2023/08/11 00:02:22;;;;;;;2.22;1.33;;;20.60;99.90;;;;;;4123884;28;20514;-69
2023/08/11 00:04:23;;;;;;;1.87;1.47;;;20.50;99.90;;;;;;4125701;28;20507;-68
2023/08/11 00:06:25;;;;;;;1.20;1.10;;;20.50;99.90;;;;;;4125472;28;20034;-68
2023/08/11 00:08:25;;;;;;;2.20;1.20;;;20.40;99.90;;;;;;4131265;28;20030;-69
2023/08/11 00:10:26;;;;;;;1.55;1.25;;;20.40;99.90;;;;;;4125460;28;22386;-69
2023/08/11 00:12:27;;;;;;;2.22;1.40;;;20.30;99.90;;;;;;4127193;28;20039;-68
2023/08/11 00:14:27;;;;;;;1.60;1.50;;;20.30;99.90;;;;;;4119635;28;20073;-68
2023/08/11 00:16:28;;;;;;;2.20;1.80;;;20.20;99.90;;;;;;4124207;28;20026;-69
2023/08/11 00:18:29;;;;;;;2.25;1.80;;;20.20;99.90;;;;;;4127863;28;20046;-68
2023/08/11 00:20:30;;;;;;;2.80;1.60;;;20.20;99.90;;;;;;4125912;28;20038;-69
2023/08/11 00:22:32;;;;;;;1.70;1.60;;;20.20;99.90;;;;;;4121857;28;20759;-68
2023/08/11 00:24:34;;;;;;;2.10;1.73;;;20.20;99.90;;;;;;4122252;28;20030;-68
2023/08/11 00:26:35;;;;;;;1.98;1.38;;;20.10;99.90;;;;;;4121385;28;20034;-68
2023/08/11 00:28:36;;;;;;;1.70;1.38;;;20.10;99.90;;;;;;4126653;28;20491;-68
2023/08/11 00:30:36;;;;;;;3.38;1.45;;;20.10;99.90;;;;;;4129600;28;20038;-68
2023/08/11 00:32:37;;;;;;;3.55;1.50;;;20.10;99.90;;;;;;4130641;28;20104;-69
2023/08/11 00:34:38;;;;;;;4.30;1.50;;;20.00;99.90;;;;;;4123628;28;20483;-69
2023/08/11 00:36:39;;;;;;;2.70;1.70;;;20.00;99.90;;;;;;4126942;28;20138;-69
2023/08/11 00:38:40;;;;;;;2.00;1.45;;;20.00;99.90;;;;;;4123274;28;20038;-68
2023/08/11 00:40:40;;;;;;;1.92;1.35;;;20.00;99.90;;;;;;4130756;28;20026;-68
2023/08/11 00:42:41;;;;;;;5.10;1.58;;;20.00;99.90;;;;;;4121481;28;20484;-68
2023/08/11 00:44:42;;;;;;;1.92;1.40;;;20.00;99.90;;;;;;4123157;28;20031;-68
2023/08/11 00:46:43;;;;;;;3.67;1.42;;;20.00;99.90;;;;;;4117588;28;20109;-68
2023/08/11 00:48:44;;;;;;;1.63;1.50;;;19.90;99.90;;;;;;4113796;28;20110;-68
2023/08/11 00:50:45;;;;;;;3.08;1.75;;;19.80;99.90;;;;;;4110169;28;20093;-68
2023/08/11 00:52:46;;;;;;;3.05;1.85;;;19.80;99.90;;;;;;4120946;28;20026;-68
2023/08/11 00:54:47;;;;;;;2.50;1.70;;;19.80;99.90;;;;;;4123695;28;20046;-68
2023/08/11 00:56:48;;;;;;;2.95;2.20;;;19.70;99.90;;;;;;4120278;28;20121;-68
2023/08/11 00:58:52;;;;;;;3.33;2.13;;;19.70;99.90;;;;;;4120590;28;20432;-69
2023/08/11 01:00:53;;;;;;;2.95;2.00;;;19.60;99.90;;;;;;4122872;28;20030;-69
2023/08/11 01:02:54;;;;;;;1.88;1.60;;;19.60;99.90;;;;;;4125897;28;20691;-69
2023/08/11 01:04:55;;;;;;;2.53;1.98;;;19.60;99.90;;;;;;4131323;28;20502;-69
2023/08/11 01:07:16;;;;;;;3.58;2.00;;;19.60;99.90;;;;;;4121691;28;20042;-69
2023/08/11 01:09:30;;;;;;;1.88;1.67;;;19.60;99.90;;;;;;4120846;28;20515;-68
2023/08/11 01:12:09;;;;;;;3.75;1.77;;;19.60;99.90;;;;;;4124230;28;20046;-69
2023/08/11 01:14:18;;;;;;;1.55;1.30;;;19.60;99.90;;;;;;4111135;28;20031;-66
2023/08/11 01:16:21;;;;;;;1.63;1.38;;;19.60;99.90;;;;;;4121512;28;20086;-66
2023/08/11 01:18:23;;;;;;;2.42;1.60;;;19.60;99.90;;;;;;4128368;28;20092;-65
2023/08/11 01:20:24;;;;;;;1.85;1.58;;;19.60;99.90;;;;;;4124258;28;20069;-66
2023/08/11 01:22:28;;;;;;;1.92;1.73;;;19.70;99.90;;;;;;4124607;28;20046;-67
2023/08/11 01:24:30;;;;;;;2.05;1.55;;;19.70;99.90;;;;;;4129357;28;20483;-65
2023/08/11 01:26:31;;;;;;;3.97;1.98;;;19.70;99.90;;;;;;4134342;28;20045;-65
2023/08/11 01:28:34;;;;;;;2.42;1.60;;;19.70;99.90;;;;;;4126268;28;20042;-65
2023/08/11 01:30:36;;;;;;;2.13;1.60;;;19.70;99.90;;;;;;4125165;28;20046;-65
2023/08/11 01:32:38;;;;;;;3.58;2.08;;;19.70;99.90;;;;;;4128218;28;20038;-65
2023/08/11 01:34:38;;;;;;;3.00;1.65;;;19.70;99.90;;;;;;4129468;28;20042;-65
2023/08/11 01:36:41;;;;;;;2.70;1.70;;;19.70;99.90;;;;;;4126834;28;20073;-65
2023/08/11 01:38:42;;;;;;;2.60;1.77;;;19.70;99.90;;;;;;4123577;28;20049;-65
2023/08/11 01:40:42;;;;;;;2.25;1.80;;;19.70;99.90;;;;;;4125437;28;20046;-66
2023/08/11 01:42:44;;;;;;;2.70;1.70;;;19.70;99.90;;;;;;4125969;28;20038;-66
2023/08/11 01:44:45;;;;;;;1.90;1.50;;;19.70;99.90;;;;;;4125944;28;20035;-66
2023/08/11 01:46:46;;;;;;;2.63;1.70;;;19.70;99.90;;;;;;4132371;28;20030;-66
2023/08/11 01:48:48;;;;;;;1.88;1.67;;;19.60;99.90;;;;;;4124212;28;20041;-66
2023/08/11 01:50:49;;;;;;;5.82;2.00;;;19.60;99.90;;;;;;4123854;28;20037;-65
2023/08/11 01:52:52;;;;;;;3.42;1.98;;;19.60;99.90;;;;;;4105662;28;20487;-65
2023/08/11 01:54:53;;;;;;;3.47;2.60;;;19.50;99.90;;;;;;4124515;28;20101;-65
2023/08/11 01:56:55;;;;;;;3.67;2.50;;;19.30;99.90;;;;;;4124684;28;20023;-66
2023/08/11 01:58:58;;;;;;;6.77;2.60;;;19.20;99.90;;;;;;4125330;28;20034;-67
2023/08/11 02:00:59;;;;;;;3.22;2.20;;;19.10;99.90;;;;;;4126461;28;20034;-66
2023/08/11 02:03:00;;;;;;;3.72;2.40;;;19.00;99.90;;;;;;4126824;28;20033;-65
2023/08/11 02:05:00;;;;;;;3.30;2.38;;;18.90;99.90;;;;;;4127671;28;20117;-65
2023/08/11 02:07:01;;;;;;;2.20;1.88;;;18.90;99.90;;;;;;4107679;28;20047;-65
2023/08/11 02:09:04;;;;;;;2.20;1.60;;;18.90;99.90;;;;;;4125814;28;20065;-66
2023/08/11 02:11:05;;;;;;;2.38;1.70;;;18.90;99.90;;;;;;4125022;28;20515;-65
2023/08/11 02:13:05;;;;;;;1.88;1.58;;;19.00;99.90;;;;;;4122561;28;20030;-65
2023/08/11 02:15:06;;;;;;;3.38;1.95;;;19.00;99.90;;;;;;4127819;28;20033;-66
2023/08/11 02:17:07;;;;;;;1.77;1.60;;;19.10;99.90;;;;;;4124344;28;20113;-65
2023/08/11 02:19:08;;;;;;;2.72;1.92;;;19.10;99.90;;;;;;4138467;28;20037;-66
2023/08/11 02:21:10;;;;;;;2.92;2.03;;;19.10;99.90;;;;;;4125080;28;20030;-68
2023/08/11 02:23:10;;;;;;;2.28;1.70;;;19.10;99.90;;;;;;4121194;28;20031;-67
2023/08/11 02:25:11;;;;;;;2.45;2.10;;;19.10;99.90;;;;;;4128028;28;20037;-67
2023/08/11 02:27:13;;;;;;;2.38;1.80;;;19.10;99.90;;;;;;4126505;28;20027;-66
2023/08/11 02:29:13;;;;;;;2.58;1.90;;;19.10;99.90;;;;;;4142347;28;20136;-65
2023/08/11 02:31:14;;;;;;;4.03;2.15;;;19.20;99.90;;;;;;4128284;28;20030;-65
2023/08/11 02:33:18;;;;;;;2.13;1.92;;;19.20;99.90;;;;;;4127016;28;20042;-65
2023/08/11 02:35:18;;;;;;;3.92;2.28;;;19.20;99.90;;;;;;4128907;28;20492;-65
2023/08/11 02:37:19;;;;;;;2.42;1.80;;;19.20;99.90;;;;;;4114034;28;20035;-65
2023/08/11 02:39:19;;;;;;;2.72;1.90;;;19.10;99.90;;;;;;4128570;28;20049;-66
2023/08/11 02:41:20;;;;;;;3.10;2.13;;;19.10;99.90;;;;;;4127793;28;20117;-65
2023/08/11 02:43:21;;;;;;;2.65;2.13;;;19.10;99.90;;;;;;4129209;28;20038;-67
2023/08/11 02:45:22;;;;;;;2.35;2.13;;;19.10;99.90;;;;;;4137611;28;20126;-65
2023/08/11 02:47:23;;;;;;;3.38;2.72;;;19.10;99.90;;;;;;4126158;28;20395;-65
2023/08/11 02:49:24;;;;;;;3.38;2.60;;;19.20;99.90;;;;;;4133677;28;20064;-65
2023/08/11 02:51:24;;;;;;;3.42;2.67;;;19.20;99.90;;;;;;4128751;28;20510;-65
2023/08/11 02:53:25;;;;;;;2.85;2.28;;;19.10;99.90;;;;;;4143629;28;20033;-68
2023/08/11 02:55:26;;;;;;;3.88;2.55;;;19.10;99.90;;;;;;4127703;28;20031;-66
2023/08/11 02:57:26;;;;;;;3.33;2.13;;;19.10;99.90;;;;;;4127576;28;20443;-66
2023/08/11 02:59:27;;;;;;;2.25;2.05;;;19.10;99.90;;;;;;4131798;28;20042;-66
2023/08/11 03:01:28;;;;;;;3.75;2.70;;;19.10;99.90;;;;;;4125448;28;20450;-65
2023/08/11 03:03:29;;;;;;;3.10;2.38;;;19.10;99.90;;;;;;4128630;28;20031;-67
2023/08/11 03:05:29;;;;;;;4.22;2.40;;;19.10;99.90;;;;;;4126671;28;20038;-68
2023/08/11 03:07:31;;;;;;;2.28;2.00;;;19.10;99.90;;;;;;4128076;28;20030;-66
2023/08/11 03:09:32;;;;;;;4.85;2.03;;;19.10;99.90;;;;;;4127751;28;20553;-65
2023/08/11 03:11:32;;;;;;;2.90;2.22;;;19.10;99.90;;;;;;4125573;28;20042;-66
2023/08/11 03:13:33;;;;;;;2.22;1.90;;;19.10;99.90;;;;;;4127870;28;20423;-68
2023/08/11 03:15:34;;;;;;;3.45;2.30;;;19.10;99.90;;;;;;4132775;28;20035;-66
2023/08/11 03:17:37;;;;;;;2.70;2.20;;;19.10;99.90;;;;;;4127023;28;20073;-66
2023/08/11 03:19:38;;;;;;;2.42;2.10;;;19.10;99.90;;;;;;4128071;28;20122;-66
2023/08/11 03:21:39;;;;;;;3.65;2.28;;;19.10;99.90;;;;;;4127021;28;20034;-66
2023/08/11 03:23:39;;;;;;;2.58;2.08;;;19.10;99.90;;;;;;4123455;28;20088;-65
2023/08/11 03:25:40;;;;;;;3.38;2.20;;;19.10;99.90;;;;;;4125433;28;20057;-65
2023/08/11 03:27:42;;;;;;;3.70;2.60;;;19.10;99.90;;;;;;4124153;28;20046;-65
2023/08/11 03:29:42;;;;;;;2.97;2.00;;;19.10;99.90;;;;;;4125228;28;20443;-65
2023/08/11 03:31:43;;;;;;;2.53;2.00;;;19.10;99.90;;;;;;4124602;28;20045;-65
2023/08/11 03:33:44;;;;;;;2.33;2.10;;;19.10;99.90;;;;;;4125892;28;20076;-65
2023/08/11 03:35:46;;;;;;;2.90;2.17;;;19.10;99.90;;;;;;4124928;28;20038;-69
2023/08/11 03:37:46;;;;;;;2.20;2.00;;;19.10;99.90;;;;;;4122827;28;20601;-68
2023/08/11 03:39:47;;;;;;;3.65;2.00;;;19.10;99.90;;;;;;4124754;28;20035;-68
2023/08/11 03:41:48;;;;;;;2.58;1.90;;;19.10;99.90;;;;;;4124672;28;20145;-68
2023/08/11 03:43:48;;;;;;;2.20;2.00;;;19.10;99.90;;;;;;4129378;28;20025;-68
2023/08/11 03:45:50;;;;;;;2.92;1.88;;;19.10;99.90;;;;;;4129648;28;20046;-68
2023/08/11 03:47:51;;;;;;;3.90;1.97;;;19.10;99.90;;;;;;4117763;28;20486;-69
2023/08/11 03:49:51;;;;;;;2.95;2.20;;;19.10;99.90;;;;;;4131843;28;20349;-68
2023/08/11 03:51:52;;;;;;;3.85;2.15;;;19.00;99.90;;;;;;4127047;28;20042;-69
2023/08/11 03:53:53;;;;;;;3.03;2.03;;;19.00;99.90;;;;;;4133545;28;20523;-69
2023/08/11 03:55:53;;;;;;;3.00;2.08;;;19.00;99.90;;;;;;4126961;28;20030;-68
2023/08/11 03:57:54;;;;;;;3.83;2.03;;;19.00;99.90;;;;;;4125924;28;20037;-69
2023/08/11 03:59:55;;;;;;;2.90;2.10;;;19.00;99.90;;;;;;4125789;28;20031;-69
2023/08/11 04:01:55;;;;;;;3.05;2.33;;;19.00;99.90;;;;;;4127229;28;20057;-69
2023/08/11 04:03:56;;;;;;;2.90;2.55;;;18.90;99.90;;;;;;4125413;28;20026;-69
2023/08/11 04:06:00;;;;;;;3.10;2.30;;;18.80;99.90;;;;;;4126561;28;20033;-69
2023/08/11 04:08:04;;;;;;;2.60;2.10;;;18.80;99.90;;;;;;4127396;28;20035;-69
2023/08/11 04:10:05;;;;;;;3.42;2.50;;;18.80;99.90;;;;;;4126564;28;20376;-69
2023/08/11 04:12:07;;;;;;;2.42;1.67;;;18.80;99.90;;;;;;4126074;28;20030;-68
2023/08/11 04:14:07;;;;;;;3.63;1.90;;;18.80;99.90;;;;;;4122606;28;20089;-69
2023/08/11 04:16:09;;;;;;;2.42;2.10;;;18.70;99.90;;;;;;4109537;28;20033;-69
2023/08/11 04:18:10;;;;;;;2.60;1.98;;;18.70;99.90;;;;;;4125493;28;20440;-69
2023/08/11 04:20:12;;;;;;;4.30;2.00;;;18.70;99.90;;;;;;4129231;28;20041;-68
2023/08/11 04:22:13;;;;;;;;;;;18.70;99.90;;;;;;4130498;28;20072;-69
2023/08/11 04:24:15;;;;;;;2.85;2.00;;;18.70;99.90;;;;;;4115184;28;19914;-69
2023/08/11 04:26:15;;;;;;;2.97;2.47;;;18.70;99.90;;;;;;4126214;28;20034;-70
2023/08/11 04:28:16;;;;;;;2.65;2.22;;;18.60;99.90;;;;;;4122579;28;20293;-69
2023/08/11 04:30:17;;;;;;;2.05;1.85;;;18.60;99.90;;;;;;4119501;28;20503;-68
2023/08/11 04:32:18;;;;;;;3.72;2.22;;;18.50;99.90;;;;;;4123485;28;20254;-68
2023/08/11 04:34:18;;;;;;;3.20;2.22;;;18.50;99.90;;;;;;4131260;28;20046;-68
2023/08/11 04:36:19;;;;;;;3.55;2.42;;;18.40;99.90;;;;;;4118006;28;20030;-69
2023/08/11 04:38:20;;;;;;;4.03;2.25;;;18.40;99.90;;;;;;4131865;28;20049;-68
2023/08/11 04:40:20;;;;;;;3.88;2.38;;;18.30;99.90;;;;;;4126032;28;20038;-68
2023/08/11 04:42:21;;;;;;;2.70;2.20;;;18.30;99.90;;;;;;4127155;28;20547;-69
2023/08/11 04:44:22;;;;;;;4.22;2.50;;;18.30;99.90;;;;;;4125767;28;20041;-72
2023/08/11 04:46:22;;;;;;;2.90;2.08;;;18.30;99.90;;;;;;4124015;28;20062;-73
2023/08/11 04:48:23;;;;;;;5.20;2.63;;;18.30;99.90;;;;;;4127281;28;20483;-72
2023/08/11 04:50:24;;;;;;;2.67;2.10;;;18.30;99.90;;;;;;4129607;28;20101;-72
2023/08/11 04:52:24;;;;;;;4.07;2.10;;;18.40;99.90;;;;;;4124198;28;20384;-72
2023/08/11 04:54:25;;;;;;;5.15;2.78;;;18.40;99.90;;;;;;4115798;28;20083;-68
2023/08/11 04:56:27;;;;;;;3.88;2.67;;;18.40;99.90;;;;;;4126865;28;20058;-68
2023/08/11 04:58:28;;;;;;;4.95;3.13;;;18.40;99.90;;;;;;4124342;28;20050;-68
2023/08/11 05:00:29;;;;;;;3.78;2.70;;;18.40;99.90;;;;;;4125121;28;20956;-67
2023/08/11 05:02:29;;;;;;;4.38;2.60;;;18.50;99.90;;;;;;4126057;28;20049;-67
2023/08/11 05:04:31;;;;;;;4.65;3.03;;;18.50;99.90;;;;;;4123408;28;20031;-64
2023/08/11 05:06:31;;;;;;;3.60;2.53;;;18.50;99.90;;;;;;4124017;28;20061;-65
2023/08/11 05:08:32;;;;;;;5.20;2.88;;;18.50;99.90;;;;;;4125018;28;20042;-65
2023/08/11 05:10:33;;;;;;;4.68;2.70;;;18.60;99.90;;;;;;4124206;28;20061;-66
2023/08/11 05:12:34;;;;;;;4.40;3.15;;;18.60;99.90;;;;;;4124845;28;20042;-66
2023/08/11 05:14:34;;;;;;;5.43;3.10;;;18.60;99.90;;;;;;4124180;28;20061;-65
2023/08/11 05:16:35;;;;;;;5.25;3.00;;;18.60;99.90;;;;;;4124164;28;20138;-65
2023/08/11 05:18:36;;;;;;;4.72;2.95;;;18.60;99.90;;;;;;4119306;28;20058;-67
2023/08/11 05:20:36;;;;;;;4.60;2.85;;;18.70;99.90;;;;;;4118388;28;20407;-65
2023/08/11 05:22:37;;;;;;;3.97;2.75;;;18.70;99.90;;;;;;4113211;28;20045;-65
2023/08/11 05:24:38;;;;;;;5.82;2.95;;;18.70;99.90;;;;;;4122390;28;20492;-64
2023/08/11 05:26:39;;;;;;;5.25;3.40;;;18.70;99.90;;;;;;4125532;28;20125;-66
2023/08/11 05:28:39;;;;;;;4.40;2.65;;;18.70;99.90;;;;;;4116087;28;20530;-67
2023/08/11 05:30:40;;;;;;;7.45;3.05;;;18.80;99.90;;;;;;4124013;28;20058;-67
2023/08/11 05:32:40;;;;;;;4.07;2.90;;;18.80;99.90;;;;;;4122386;28;20046;-65
2023/08/11 05:34:41;;;;;;;5.55;2.80;;;18.80;99.90;;;;;;4119305;28;20427;-66
2023/08/11 05:36:43;;;;;;;4.35;2.88;;;18.80;99.90;;;;;;4124603;28;20065;-65
2023/08/11 05:38:44;;;;;;;5.88;3.03;;;18.80;99.90;;;;;;4119873;28;20558;-64
2023/08/11 05:40:44;;;;;;;4.55;2.78;;;18.80;99.90;;;;;;4126706;28;20045;-64
2023/08/11 05:42:45;;;;;;;6.97;3.40;;;18.80;99.90;;;;;;4142682;28;20029;-64
2023/08/11 05:44:46;;;;;;;6.70;3.10;;;18.70;99.90;;;;;;4136127;28;20049;-64
2023/08/11 05:46:47;;;;;;;3.92;3.00;;;18.80;99.90;;;;;;4124958;28;20109;-65
2023/08/11 05:48:48;;;;;;;5.50;3.15;;;18.80;99.90;;;;;;4123846;28;20046;-68
2023/08/11 05:50:50;;;;;;;5.20;2.95;;;18.80;99.90;;;;;;4135641;28;20053;-64
2023/08/11 05:52:50;;;;;;;4.72;3.05;;;18.80;99.90;;;;;;4126292;28;20038;-64
2023/08/11 05:54:53;;;;;;;4.10;2.47;;;18.70;99.90;;;;;;4131900;28;20034;-64
2023/08/11 05:56:54;;;;;;;5.03;3.10;;;18.70;99.90;;;;;;4117591;28;20758;-64
2023/08/11 05:58:55;;;;;;;3.90;2.60;;;18.70;99.90;;;;;;4123276;28;20065;-64
2023/08/11 06:00:56;;;;;;;5.30;2.78;;;18.80;99.90;;;;;;4117741;28;20027;-65
2023/08/11 06:02:56;;;;;;;4.93;2.90;;;18.80;99.90;;;;;;4122743;28;20663;-65
2023/08/11 06:04:57;;;;;;;4.60;2.53;;;18.80;99.90;;;;;;4124985;28;20026;-65
2023/08/11 06:06:57;;;;;;;6.10;3.22;;;18.90;99.90;;;;;;4123469;28;20029;-66
2023/08/11 06:08:58;;;;;;;4.20;2.78;;;18.80;99.90;;;;;;4126434;28;20033;-64
2023/08/11 06:10:59;;;;;;;4.88;2.58;;;18.90;99.90;;;;;;4120048;28;20034;-65
2023/08/11 06:12:59;;;;;;;5.80;2.97;;;18.90;99.90;;;;;;4092809;28;20552;-65
2023/08/11 06:15:00;;;;;;;7.30;3.10;;;18.90;99.90;;;;;;4127844;28;20407;-65
2023/08/11 06:17:01;;;;;;;6.35;3.15;;;18.90;99.90;;;;;;4122013;28;20194;-64
2023/08/11 06:19:01;;;;;;;3.55;2.53;;;18.90;99.90;;;;;;4117006;28;20033;-64
2023/08/11 06:21:04;;;;;;;4.03;2.67;;;19.00;99.90;;;;;;4122108;28;20073;-64
2023/08/11 06:23:04;;;;;;;5.30;3.28;;;19.10;99.90;;;;;;4121783;28;20053;-65
2023/08/11 06:25:06;;;;;;;4.13;2.60;;;19.00;99.90;;;;;;4116563;28;20034;-65
2023/08/11 06:27:06;;;;;;;4.40;2.65;;;19.10;99.90;;;;;;4120724;28;21370;-67
2023/08/11 06:29:08;;;;;;;5.35;2.97;;;19.20;99.90;;;;;;4120321;28;20043;-65
2023/08/11 06:31:10;;;;;;;6.75;2.70;;;19.30;99.90;;;;;;4120935;28;20113;-63
2023/08/11 06:33:10;;;;;;;5.13;2.80;;;19.30;99.90;;;;;;4125032;28;20463;-66
2023/08/11 06:35:11;;;;;;;4.97;2.95;;;19.40;99.90;;;;;;4116522;28;20037;-66
2023/08/11 06:37:11;;;;;;;6.57;3.00;;;19.70;99.90;;;;;;4124060;28;20467;-64
2023/08/11 06:39:12;;;;;;;7.07;3.25;;;19.90;99.90;;;;;;4124853;28;20046;-64
2023/08/11 06:41:13;;;;;;;5.38;3.25;;;20.20;99.90;;;;;;4120659;28;20042;-68
2023/08/11 06:43:14;;;;;;;4.28;2.65;;;20.50;99.90;;;;;;4122743;28;20030;-66
2023/08/11 06:45:14;;;;;;;5.35;2.40;;;20.90;99.90;;;;;;4120744;28;20568;-68
2023/08/11 06:47:15;;;;;;;8.27;3.45;;;21.20;99.90;;;;;;4119851;28;20038;-64
2023/08/11 06:49:16;;;;;;;3.35;2.50;;;21.60;99.90;;;;;;4124874;28;21936;-65
2023/08/11 06:51:16;;;;;;;3.60;2.47;;;21.90;99.90;;;;;;4122180;28;20035;-64
2023/08/11 06:53:17;;;;;;;4.80;2.28;;;22.30;99.90;;;;;;4120403;28;20491;-65
2023/08/11 06:55:18;;;;;;;6.45;3.33;;;22.70;99.90;;;;;;4120233;28;20061;-64
2023/08/11 06:57:25;;;;;;;3.92;2.35;;;23.00;99.90;;;;;;4123788;28;20032;-68
2023/08/11 06:59:26;;;;;;;5.10;2.80;;;23.30;99.90;;;;;;4110957;28;20064;-65
2023/08/11 07:01:26;;;;;;;4.93;2.63;;;23.60;99.90;;;;;;4106010;28;20037;-65
2023/08/11 07:03:27;;;;;;;4.70;2.70;;;23.90;99.90;;;;;;4124909;28;20414;-65
2023/08/11 07:05:28;;;;;;;3.65;2.58;;;24.10;99.90;;;;;;4123424;28;20030;-67
2023/08/11 07:07:29;;;;;;;3.70;2.70;;;24.40;99.90;;;;;;4123569;28;20121;-66
2023/08/11 07:09:29;;;;;;;3.90;2.53;;;24.60;99.90;;;;;;4124627;28;20031;-65
2023/08/11 07:11:30;;;;;;;4.07;2.42;;;24.80;99.90;;;;;;4123173;28;20038;-65
2023/08/11 07:13:31;;;;;;;3.85;2.47;;;24.90;99.90;;;;;;4120291;28;20035;-65
2023/08/11 07:15:31;;;;;;;4.47;2.47;;;25.00;99.90;;;;;;4121540;28;20045;-65
2023/08/11 07:17:32;;;;;;;5.70;2.75;;;25.00;99.90;;;;;;4114057;28;20049;-65
2023/08/11 07:19:32;;;;;;;3.15;2.10;;;25.10;99.90;;;;;;4117855;28;20034;-66
2023/08/11 07:21:33;;;;;;;6.22;2.53;;;25.20;99.90;;;;;;4121062;28;20509;-67
2023/08/11 07:23:34;;;;;;;3.45;2.15;;;25.20;99.90;;;;;;4123359;28;20092;-66
2023/08/11 07:25:35;;;;;;;4.07;2.25;;;25.30;99.90;;;;;;4123581;28;20047;-67
2023/08/11 07:27:35;;;;;;;4.43;2.80;;;25.30;99.90;;;;;;4123723;28;20141;-65
2023/08/11 07:29:36;;;;;;;3.92;2.53;;;25.30;99.90;;;;;;4124595;28;20124;-67
2023/08/11 07:31:37;;;;;;;4.18;2.17;;;25.20;99.90;;;;;;4121537;28;20045;-66
2023/08/11 07:33:39;;;;;;;4.20;2.58;;;25.30;99.90;;;;;;4125097;28;20046;-65
2023/08/11 07:35:40;;;;;;;5.03;2.35;;;25.20;99.90;;;;;;4123512;28;20035;-68
2023/08/11 07:37:41;;;;;;;5.20;2.58;;;25.30;99.90;;;;;;4124951;28;20210;-66
2023/08/11 07:39:42;;;;;;;3.42;2.15;;;25.40;99.90;;;;;;4124099;28;20395;-68
2023/08/11 07:41:43;;;;;;;4.63;2.22;;;25.40;99.90;;;;;;4122339;28;20042;-65
2023/08/11 07:43:43;;;;;;;4.68;2.35;;;25.40;99.90;;;;;;4123952;28;20042;-66
2023/08/11 07:45:44;;;;;;;2.78;2.13;;;25.50;99.90;;;;;;4122767;28;20045;-66
2023/08/11 07:47:45;;;;;;;4.32;2.40;;;25.50;99.90;;;;;;4121736;28;20125;-66
2023/08/11 07:49:45;;;;;;;4.38;2.67;;;25.60;99.90;;;;;;4124664;28;20035;-66
2023/08/11 07:51:46;;;;;;;7.88;2.50;;;25.60;99.90;;;;;;4111429;28;20058;-67
2023/08/11 07:53:47;;;;;;;3.88;2.20;;;25.60;99.90;;;;;;4122108;28;20039;-66
2023/08/11 07:55:48;;;;;;;3.10;2.20;;;25.50;99.90;;;;;;4122752;28;20031;-68
2023/08/11 07:57:49;;;;;;;3.42;2.10;;;25.60;99.90;;;;;;4123525;28;20030;-65
2023/08/11 07:59:49;;;;;;;4.45;2.10;;;25.60;99.90;;;;;;4125524;28;20056;-67
2023/08/11 08:01:52;;;;;;;3.75;2.50;;;25.60;99.90;;;;;;4105775;28;20495;-66
2023/08/11 08:03:53;;;;;;;3.95;2.40;;;25.70;99.90;;;;;;4121960;28;20080;-66
2023/08/11 08:05:54;;;;;;;3.90;2.10;;;25.70;99.90;;;;;;4120438;28;20042;-65
2023/08/11 08:07:54;;;;;;;4.18;2.40;;;25.70;99.40;;;;;;4123791;28;20031;-66
2023/08/11 08:09:55;;;;;;;4.00;2.15;;;25.80;99.60;;;;;;4120350;28;20042;-65
2023/08/11 08:11:55;;;;;;;4.45;2.20;;;25.90;99.90;;;;;;4122260;28;20105;-66
2023/08/11 08:13:56;;;;;;;4.38;2.40;;;26.00;99.90;;;;;;4114867;28;20061;-66
2023/08/11 08:15:57;;;;;;;4.03;2.15;;;26.00;98.80;;;;;;4120681;28;20027;-72
2023/08/11 08:17:58;;;;;;;3.33;2.17;;;26.00;99.60;;;;;;4126435;28;20034;-71
2023/08/11 08:19:58;;;;;;;3.90;2.28;;;26.10;98.80;;;;;;4135191;28;20038;-71
2023/08/11 08:21:59;;;;;;;3.38;2.28;;;26.20;99.60;;;;;;4127590;28;20038;-71
2023/08/11 08:24:03;;;;;;;3.38;2.40;;;26.20;98.40;;;;;;4131285;28;20384;-72
2023/08/11 08:26:04;;;;;;;2.83;2.20;;;26.20;98.60;;;;;;4124569;28;20061;-71
2023/08/11 08:28:05;;;;;;;4.03;2.33;;;26.30;98.40;;;;;;4127573;28;20050;-71
2023/08/11 08:30:07;;;;;;;4.10;2.45;;;26.30;97.80;;;;;;4126697;28;20377;-68
2023/08/11 08:32:08;;;;;;;;;;;26.30;98.50;;;;;;4142961;28;20076;-72
2023/08/11 08:34:08;;;;;;;4.43;2.55;;;26.40;98.80;;;;;;4125778;28;20004;-72
2023/08/11 08:36:09;;;;;;;3.22;2.53;;;26.40;98.40;;;;;;4132633;28;20447;-72
2023/08/11 08:38:10;;;;;;;4.13;2.50;;;26.40;97.70;;;;;;4142438;28;20503;-72
2023/08/11 08:40:12;;;;;;;4.78;2.45;;;26.30;97.80;;;;;;4126297;28;20102;-71
2023/08/11 08:42:15;;;;;;;5.03;2.22;;;26.40;98.50;;;;;;4127786;28;20408;-72
2023/08/11 08:44:16;;;;;;;3.22;2.20;;;26.40;98.90;;;;;;4119994;28;20421;-70
2023/08/11 08:46:19;;;;;;;4.32;2.78;;;26.50;99.10;;;;;;4140588;28;20168;-72
2023/08/11 08:48:36;;;;;;;3.22;2.22;;;26.60;98.10;;;;;;4135463;28;20030;-68
2023/08/11 08:50:38;;;;;;;4.80;2.47;;;26.60;97.60;;;;;;4111281;28;20046;-69
2023/08/11 08:52:39;;;;;;;3.15;2.08;;;26.60;97.20;;;;;;4114114;28;20412;-71
2023/08/11 08:54:41;;;;;;;6.50;2.90;;;26.70;97.40;;;;;;4127409;28;20089;-69
2023/08/11 08:56:41;;;;;;;4.88;2.65;;;26.80;98.00;;;;;;4123631;28;20092;-69
2023/08/11 08:58:43;;;;;;;5.78;2.70;;;26.80;97.20;;;;;;4127408;28;20073;-71
2023/08/11 09:00:44;;;;;;;3.15;2.13;;;26.80;96.80;;;;;;4125398;28;20038;-69
2023/08/11 09:02:45;;;;;;;5.45;2.90;;;26.80;97.40;;;;;;4126882;28;20114;-71
2023/08/11 09:04:47;;;;;;;4.40;2.35;;;26.90;97.20;;;;;;4127487;28;20034;-72
2023/08/11 09:06:50;;;;;;;5.38;2.83;;;26.90;96.50;;;;;;4124911;28;20034;-72
2023/08/11 09:08:51;;;;;;;4.60;3.03;;;26.90;97.00;;;;;;4116347;28;20042;-73
2023/08/11 09:10:52;;;;;;;6.65;2.58;;;26.90;97.90;;;;;;4114633;28;21135;-71
2023/08/11 09:12:53;;;;;;;5.05;2.65;;;27.00;97.20;;;;;;4119466;28;20039;-70
2023/08/11 09:14:54;;;;;;;3.58;2.50;;;27.00;97.60;;;;;;4119771;28;20129;-69
2023/08/11 09:16:57;;;;;;;7.78;3.13;;;27.00;98.20;;;;;;4113028;28;20117;-71
2023/08/11 09:18:58;;;;;;;3.50;2.35;;;27.10;97.70;;;;;;4119484;28;22023;-71
2023/08/11 09:21:02;;;;;;;3.83;2.15;;;27.10;97.10;;;;;;4120172;28;20061;-72
2023/08/11 09:23:06;;;;;;;2.78;2.10;;;27.10;97.60;;;;;;4118882;28;20062;-69
2023/08/11 09:25:07;;;;;;;4.20;2.15;;;27.20;97.40;;;;;;4120512;28;20024;-67
2023/08/11 09:27:09;;;;;;;3.53;2.13;;;27.20;97.20;;;;;;4118702;28;20045;-65
2023/08/11 09:29:10;;;;;;;4.60;2.42;;;27.30;98.40;;;;;;4120179;28;20042;-66
2023/08/11 09:31:12;;;;;;;3.03;2.17;;;27.40;98.30;;;;;;4119959;28;20407;-66
2023/08/11 09:33:13;;;;;;;2.13;1.77;;;27.40;98.00;;;;;;4120386;28;20034;-67
2023/08/11 09:35:14;;;;;;;3.97;2.60;;;27.50;97.50;;;;;;4122960;28;20061;-67
2023/08/11 09:37:14;;;;;;;4.18;2.60;;;27.50;96.70;;;;;;4128480;28;20026;-65
2023/08/11 09:39:16;;;;;;;2.78;2.30;;;27.60;96.40;;;;;;4129020;28;20037;-65
2023/08/11 09:41:16;;;;;;;6.55;2.30;;;27.60;96.30;;;;;;4124557;28;20034;-65
2023/08/11 09:43:17;;;;;;;6.35;2.40;;;27.70;96.80;;;;;;4130461;28;20118;-68
2023/08/11 09:45:18;;;;;;;5.68;2.35;;;27.70;96.40;;;;;;4124603;28;20114;-65
2023/08/11 09:47:19;;;;;;;4.78;2.90;;;27.80;95.80;;;;;;4128413;28;20041;-65
2023/08/11 09:49:19;;;;;;;6.10;2.88;;;27.70;94.90;;;;;;4124832;28;20432;-65
2023/08/11 09:51:21;;;;;;;3.40;2.30;;;27.70;96.30;;;;;;4124433;28;20031;-65
2023/08/11 09:53:22;;;;;;;4.88;2.50;;;27.80;95.70;;;;;;4122947;28;20121;-66
2023/08/11 09:55:23;;;;;;;3.67;2.33;;;27.70;95.50;;;;;;4124990;28;20039;-65
2023/08/11 09:57:26;;;;;;;3.28;2.05;;;27.80;96.50;;;;;;4122715;28;20038;-65
2023/08/11 09:59:27;;;;;;;4.88;2.50;;;27.80;95.80;;;;;;4111770;28;20089;-66
2023/08/11 10:01:30;;;;;;;3.70;2.50;;;27.80;96.90;;;;;;4121243;28;20042;-67
2023/08/11 10:03:40;;;;;;;4.32;2.53;;;27.90;96.30;;;;;;4124133;28;20042;-66
2023/08/11 10:05:42;;;;;;;3.78;2.80;;;27.90;96.20;;;;;;4118505;28;20565;-66
2023/08/11 10:07:46;;;;;;;5.22;2.75;;;27.90;94.40;;;;;;4118611;28;20105;-66
2023/08/11 10:09:48;;;;;;;5.55;2.60;;;27.80;95.90;;;;;;4124481;28;20074;-67
2023/08/11 10:11:51;;;;;;;;;;;27.80;95.00;;;;;;4120562;28;20090;-66
2023/08/11 10:13:53;;;;;;;4.07;2.67;;;27.80;94.30;;;;;;4118521;28;20394;-69
2023/08/11 10:15:55;;;;;;;4.15;2.85;;;27.90;95.20;;;;;;4126821;28;20100;-66
2023/08/11 10:17:56;;;;;;;3.45;2.30;;;27.80;95.30;;;;;;4122280;28;20038;-67
2023/08/11 10:19:57;;;;;;;4.95;2.63;;;27.90;95.80;;;;;;4126753;28;20582;-66
2023/08/11 10:21:58;;;;;;;6.30;2.90;;;27.90;95.10;;;;;;4124666;28;20037;-67
2023/08/11 10:24:00;;;;;;;4.22;2.58;;;27.90;95.30;;;;;;4128089;28;20395;-66
2023/08/11 10:26:00;;;;;;;4.30;2.60;;;28.00;94.80;;;;;;4123846;28;20042;-65
2023/08/11 10:28:02;;;;;;;3.92;2.45;;;28.00;95.20;;;;;;4122388;28;20421;-65
2023/08/11 10:30:05;;;;;;;4.75;2.45;;;28.10;95.80;;;;;;4125200;28;20133;-65
2023/08/11 10:32:06;;;;;;;3.63;2.25;;;28.20;95.60;;;;;;4126334;28;20061;-65